Terminal Aerodrome Forecast
Issued by NWS Indianapolis, IN

Current Version | Previous Version | Text Only | Print | Product List | Glossary On
Versions: 1 2 3 4 5 6 7 8 9 10 11 12 13 14 15 16 17 18 19 20 21 22 23 24 25 26 27 28 29 30 31 32 33 34
000
FTUS43 KIND 251100
TAFIND
TAF
KIND 251120Z 2512/2618 13006KT P6SM SCT030 OVC080
     FM251400 13007KT P6SM VCSH OVC025
     FM251700 12007KT 3SM -SHRA OVC010
     FM252100 06009KT 2SM -RASN OVC006
     FM260000 04015G26KT 3SM -SN OVC005
     FM260800 35012G22KT P6SM OVC010=

USA.gov is the U.S. government's official web portal to all federal, state and local government web resources and services.